createdAt,value
2023-03-13T00:03:33.695Z,16.50
2023-03-13T00:05:25.779Z,16.60
2023-03-13T00:11:35.447Z,16.50
2023-03-13T00:14:09.629Z,16.50
2023-03-13T00:16:42.568Z,16.50
2023-03-13T00:19:39.433Z,16.50
2023-03-13T00:22:27.771Z,16.50
2023-03-13T00:25:08.828Z,16.50
2023-03-13T00:28:04.382Z,16.50
2023-03-13T00:30:44.567Z,16.50
2023-03-13T00:33:21.997Z,16.50
2023-03-13T00:36:04.838Z,16.50
2023-03-13T00:38:43.264Z,16.40
2023-03-13T00:41:34.908Z,16.50
2023-03-13T00:44:11.568Z,16.50
2023-03-13T00:46:44.579Z,16.40
2023-03-13T00:49:17.540Z,16.40
2023-03-13T00:51:52.823Z,16.40
2023-03-13T00:54:40.972Z,16.40
2023-03-13T00:57:17.003Z,16.40
2023-03-13T00:59:50.005Z,16.40
2023-03-13T01:02:27.513Z,16.30
2023-03-13T01:05:03.080Z,16.30
2023-03-13T01:07:39.908Z,16.30
2023-03-13T01:10:27.438Z,16.30
2023-03-13T01:13:05.160Z,16.30
2023-03-13T01:15:53.342Z,16.30
2023-03-13T01:18:43.132Z,16.30
2023-03-13T01:21:27.817Z,16.30
2023-03-13T01:24:15.775Z,16.20
2023-03-13T01:26:49.728Z,16.30
2023-03-13T01:29:32.071Z,16.20
2023-03-13T01:32:05.380Z,16.20
2023-03-13T01:34:54.080Z,16.20
2023-03-13T01:37:29.287Z,16.20
2023-03-13T01:40:06.148Z,16.20
2023-03-13T01:42:58.480Z,16.20
2023-03-13T01:46:07.417Z,16.20
2023-03-13T01:48:56.504Z,16.20
2023-03-13T01:51:51.088Z,16.20
2023-03-13T01:54:33.462Z,16.20
2023-03-13T02:00:10.307Z,16.10
2023-03-13T02:02:49.808Z,16.10
2023-03-13T02:05:26.897Z,16.10
2023-03-13T02:08:07.140Z,16.10
2023-03-13T02:10:50.741Z,16.10
2023-03-13T02:13:23.837Z,16.10
2023-03-13T02:15:57.431Z,16.10
2023-03-13T02:18:46.501Z,16.10
2023-03-13T02:21:35.170Z,16.00
2023-03-13T02:24:24.866Z,16.10
2023-03-13T02:27:06.676Z,16.10
2023-03-13T02:29:46.198Z,16.10
2023-03-13T02:32:20.374Z,16.10
2023-03-13T02:35:04.151Z,16.10
2023-03-13T02:37:37.728Z,16.10
2023-03-13T02:40:26.256Z,16.10
2023-03-13T02:43:02.214Z,16.10
2023-03-13T02:45:38.322Z,16.10
2023-03-13T02:48:17.268Z,16.10
2023-03-13T02:50:51.302Z,16.10
2023-03-13T02:53:30.202Z,16.10
2023-03-13T02:56:18.363Z,16.10
2023-03-13T02:58:54.235Z,16.10
2023-03-13T03:01:30.290Z,16.00
2023-03-13T03:04:03.340Z,16.10
2023-03-13T03:06:42.680Z,16.10
2023-03-13T03:09:16.282Z,16.10
2023-03-13T03:11:55.247Z,16.10
2023-03-13T03:14:28.620Z,16.00
2023-03-13T03:17:02.539Z,16.00
2023-03-13T03:19:35.299Z,16.00
2023-03-13T03:22:11.012Z,16.00
2023-03-13T03:24:43.795Z,16.00
2023-03-13T03:27:16.736Z,16.00
2023-03-13T03:29:55.332Z,16.00
2023-03-13T03:32:28.488Z,16.00
2023-03-13T03:35:04.749Z,16.00
2023-03-13T03:37:38.928Z,16.00
2023-03-13T03:40:14.849Z,16.00
2023-03-13T03:42:51.536Z,16.00
2023-03-13T03:45:24.412Z,16.00
2023-03-13T03:48:01.396Z,16.00
2023-03-13T03:50:40.701Z,16.00
2023-03-13T03:53:18.098Z,15.90
2023-03-13T03:56:00.333Z,15.90
2023-03-13T03:58:35.806Z,15.90
2023-03-13T04:01:28.941Z,15.90
2023-03-13T04:04:01.685Z,15.80
2023-03-13T04:06:35.954Z,15.90
2023-03-13T04:09:10.868Z,15.90
2023-03-13T04:11:45.798Z,15.90
2023-03-13T04:14:22.308Z,15.80
2023-03-13T04:16:55.740Z,15.80
2023-03-13T04:19:30.743Z,15.80
2023-03-13T04:22:07.685Z,15.80
2023-03-13T04:24:40.690Z,15.80
2023-03-13T04:27:14.446Z,15.80
2023-03-13T04:29:48.756Z,15.80
2023-03-13T04:32:38.726Z,15.80
2023-03-13T04:35:30.283Z,15.70
2023-03-13T04:38:19.486Z,15.80
2023-03-13T04:41:10.782Z,15.80
2023-03-13T04:43:57.148Z,15.70
2023-03-13T04:46:41.481Z,15.80
2023-03-13T04:49:36.159Z,15.70
2023-03-13T04:52:24.629Z,15.70
2023-03-13T04:55:12.344Z,15.70
2023-03-13T04:57:51.429Z,15.70
2023-03-13T05:00:35.204Z,15.70
2023-03-13T05:03:31.250Z,15.70
2023-03-13T05:06:17.486Z,15.60
2023-03-13T05:09:25.630Z,15.70
2023-03-13T05:12:16.713Z,15.60
2023-03-13T05:15:00.909Z,15.60
2023-03-13T05:17:54.860Z,15.60
2023-03-13T05:20:46.291Z,15.60
2023-03-13T05:23:34.877Z,15.60
2023-03-13T05:26:39.163Z,15.60
2023-03-13T05:29:31.341Z,15.70
2023-03-13T05:32:25.257Z,15.70
2023-03-13T05:35:03.331Z,15.70
2023-03-13T05:38:14.588Z,15.80
2023-03-13T05:41:06.081Z,15.90
2023-03-13T05:44:00.900Z,16.00
2023-03-13T05:47:04.055Z,16.10
2023-03-13T05:49:40.069Z,16.20
2023-03-13T05:52:31.392Z,16.30
2023-03-13T05:55:15.729Z,16.50
2023-03-13T05:58:13.353Z,16.70
2023-03-13T06:01:28.060Z,16.90
2023-03-13T06:04:25.554Z,17.20
2023-03-13T06:07:08.112Z,17.40
2023-03-13T06:09:41.416Z,17.50
2023-03-13T06:12:15.113Z,17.70
2023-03-13T06:14:48.050Z,17.90
2023-03-13T06:17:32.046Z,18.00
2023-03-13T06:20:11.022Z,18.20
2023-03-13T06:22:49.239Z,18.40
2023-03-13T06:25:24.408Z,18.50
2023-03-13T06:28:01.528Z,18.70
2023-03-13T06:31:08.164Z,18.80
2023-03-13T06:33:45.507Z,18.90
2023-03-13T06:36:21.093Z,19.00
2023-03-13T06:38:53.774Z,19.10
2023-03-13T06:41:28.027Z,19.10
2023-03-13T06:44:00.729Z,19.20
2023-03-13T06:46:59.403Z,19.30
2023-03-13T06:49:37.516Z,19.40
2023-03-13T06:52:16.310Z,19.40
2023-03-13T06:55:02.157Z,19.50
2023-03-13T06:57:34.997Z,19.50
2023-03-13T07:00:11.950Z,19.60
2023-03-13T07:02:48.528Z,19.60
2023-03-13T07:05:21.403Z,19.60
2023-03-13T07:08:01.510Z,19.60
2023-03-13T07:10:37.028Z,19.70
2023-03-13T07:13:09.778Z,19.70
2023-03-13T07:15:42.662Z,19.80
2023-03-13T07:18:15.705Z,19.90
2023-03-13T07:20:55.370Z,20.00
2023-03-13T07:23:30.112Z,20.10
2023-03-13T07:26:16.047Z,20.20
2023-03-13T07:32:10.484Z,20.20
2023-03-13T07:34:48.788Z,20.20
2023-03-13T07:37:35.232Z,20.20
2023-03-13T07:40:09.731Z,20.30
2023-03-13T07:43:18.703Z,20.30
2023-03-13T07:46:21.863Z,20.30
2023-03-13T07:49:03.921Z,20.50
2023-03-13T07:51:43.382Z,20.60
2023-03-13T07:54:16.764Z,20.70
2023-03-13T07:57:15.334Z,20.70
2023-03-13T08:07:06.757Z,20.90
2023-03-13T08:10:00.192Z,21.00
2023-03-13T08:13:03.870Z,21.00
2023-03-13T08:15:36.548Z,21.00
2023-03-13T08:18:27.574Z,21.10
2023-03-13T08:25:52.225Z,21.00
2023-03-13T08:28:38.531Z,21.10
2023-03-13T08:31:19.562Z,21.10
2023-03-13T08:34:12.141Z,21.10
2023-03-13T08:37:38.507Z,21.10
2023-03-13T08:40:49.698Z,21.20
2023-03-13T08:44:01.770Z,21.20
2023-03-13T08:47:06.386Z,21.20
2023-03-13T08:50:07.949Z,21.20
2023-03-13T08:53:01.448Z,21.30
2023-03-13T08:55:58.031Z,21.30
2023-03-13T08:58:47.199Z,21.30
2023-03-13T09:01:47.641Z,21.30
2023-03-13T09:04:38.958Z,21.40
2023-03-13T09:07:21.500Z,21.40
2023-03-13T09:09:56.140Z,21.40
2023-03-13T09:12:31.734Z,21.50
2023-03-13T09:15:18.503Z,21.50
2023-03-13T09:17:53.666Z,21.50
2023-03-13T09:20:26.533Z,21.50
2023-03-13T09:30:08.207Z,21.60
2023-03-13T09:32:51.823Z,21.60
2023-03-13T09:35:34.353Z,21.60
2023-03-13T09:38:09.168Z,21.60
2023-03-13T09:41:03.587Z,21.60
2023-03-13T09:43:41.862Z,21.70
2023-03-13T09:46:26.979Z,21.70
2023-03-13T09:49:04.806Z,21.80
2023-03-13T09:51:44.897Z,21.70
2023-03-13T09:54:41.625Z,21.70
2023-03-13T09:57:18.844Z,21.60
2023-03-13T10:00:19.389Z,21.60
2023-03-13T10:03:06.644Z,21.60
2023-03-13T10:05:52.283Z,21.70
2023-03-13T10:08:31.853Z,21.60
2023-03-13T10:11:13.231Z,21.60
2023-03-13T10:13:54.229Z,21.60
2023-03-13T10:16:50.485Z,21.60
2023-03-13T10:19:38.250Z,21.60
2023-03-13T10:22:30.598Z,21.60
2023-03-13T10:25:28.398Z,21.60
2023-03-13T10:28:03.905Z,21.70
2023-03-13T10:30:39.977Z,21.60
2023-03-13T10:33:15.261Z,21.60
2023-03-13T10:36:02.100Z,21.60
2023-03-13T10:38:57.664Z,21.60
2023-03-13T10:41:39.056Z,21.50
2023-03-13T10:44:23.653Z,21.40
2023-03-13T10:47:05.260Z,21.40
2023-03-13T10:49:49.063Z,21.30
2023-03-13T10:52:36.010Z,21.20
2023-03-13T10:55:21.280Z,21.20
2023-03-13T10:58:07.364Z,21.10
2023-03-13T11:00:41.573Z,21.00
2023-03-13T11:03:27.023Z,20.90
2023-03-13T11:06:02.613Z,20.80
2023-03-13T11:08:37.510Z,20.70
2023-03-13T11:11:20.116Z,20.60
2023-03-13T11:13:52.973Z,20.50
2023-03-13T11:16:29.726Z,20.40
2023-03-13T11:19:14.472Z,20.30
2023-03-13T11:22:10.342Z,20.30
2023-03-13T11:24:53.437Z,20.30
2023-03-13T11:27:37.131Z,20.20
2023-03-13T11:30:51.617Z,20.20
2023-03-13T11:33:32.976Z,20.10
2023-03-13T11:36:23.883Z,20.00
2023-03-13T11:39:13.951Z,19.90
2023-03-13T11:42:28.660Z,19.90
2023-03-13T11:45:34.593Z,19.80
2023-03-13T11:48:22.320Z,19.80
2023-03-13T11:51:14.531Z,19.60
2023-03-13T11:54:23.566Z,19.60
2023-03-13T11:57:30.183Z,19.60
2023-03-13T12:00:23.760Z,19.50
2023-03-13T12:03:22.189Z,19.50
2023-03-13T12:06:00.238Z,19.50
2023-03-13T12:08:42.059Z,19.40
2023-03-13T12:11:22.962Z,19.30
2023-03-13T12:14:06.288Z,19.30
2023-03-13T12:16:41.770Z,19.20
2023-03-13T12:19:37.664Z,19.10
2023-03-13T12:22:48.044Z,19.10
2023-03-13T12:25:35.852Z,19.10
2023-03-13T12:28:25.812Z,19.00
2023-03-13T12:31:23.065Z,19.00
2023-03-13T12:34:05.212Z,19.00
2023-03-13T12:37:03.272Z,19.00
2023-03-13T12:39:46.849Z,18.90
2023-03-13T12:42:30.360Z,18.90
2023-03-13T12:45:03.399Z,18.90
2023-03-13T12:47:51.082Z,18.90
2023-03-13T12:50:42.215Z,18.80
2023-03-13T12:53:53.679Z,18.80
2023-03-13T12:56:54.301Z,18.80
2023-03-13T12:59:50.828Z,18.70
2023-03-13T13:02:31.269Z,18.70
2023-03-13T13:05:04.865Z,18.70
2023-03-13T13:07:40.318Z,18.70
2023-03-13T13:10:13.171Z,18.70
2023-03-13T13:13:14.734Z,18.70
2023-03-13T13:15:59.544Z,18.60
2023-03-13T13:18:33.828Z,18.60
2023-03-13T13:21:06.402Z,18.60
2023-03-13T13:23:46.602Z,18.70
2023-03-13T13:26:31.044Z,18.60
2023-03-13T13:29:12.556Z,18.70
2023-03-13T13:31:48.733Z,18.70
2023-03-13T13:34:36.609Z,18.70
2023-03-13T13:37:24.246Z,18.70
2023-03-13T13:40:16.849Z,18.70
2023-03-13T13:42:55.734Z,18.80
2023-03-13T13:45:38.503Z,18.80
2023-03-13T13:48:28.536Z,18.70
2023-03-13T13:51:11.464Z,18.80
2023-03-13T13:53:46.483Z,18.80
2023-03-13T13:56:32.686Z,18.80
2023-03-13T13:59:26.553Z,18.80
2023-03-13T14:02:10.204Z,18.80
2023-03-13T14:04:57.053Z,18.80
2023-03-13T14:07:37.416Z,18.70
2023-03-13T14:10:37.280Z,18.70
2023-03-13T14:13:19.904Z,18.60
2023-03-13T14:16:13.405Z,18.60
2023-03-13T14:18:46.835Z,18.60
2023-03-13T14:21:26.883Z,18.50
2023-03-13T14:23:59.719Z,18.50
2023-03-13T14:26:34.203Z,18.50
2023-03-13T14:29:08.255Z,18.50
2023-03-13T14:31:41.200Z,18.40
2023-03-13T14:34:16.736Z,18.40
2023-03-13T14:37:04.364Z,18.40
2023-03-13T14:39:47.122Z,18.40
2023-03-13T14:42:20.016Z,18.40
2023-03-13T14:44:59.284Z,18.40
2023-03-13T14:47:32.552Z,18.40
2023-03-13T14:50:15.248Z,18.30
2023-03-13T14:52:57.954Z,18.30
2023-03-13T14:55:47.219Z,18.30
2023-03-13T14:58:31.353Z,18.30
2023-03-13T15:01:25.260Z,18.20
2023-03-13T15:03:58.115Z,18.20
2023-03-13T15:06:32.165Z,18.20
2023-03-13T15:09:11.008Z,18.10
2023-03-13T15:11:57.632Z,18.10
2023-03-13T15:14:35.111Z,18.10
2023-03-13T15:17:17.987Z,18.10
2023-03-13T15:19:55.164Z,18.10
2023-03-13T15:22:41.392Z,18.00
2023-03-13T15:25:27.244Z,18.00
2023-03-13T15:28:16.715Z,18.00
2023-03-13T15:30:51.699Z,18.00
2023-03-13T15:33:28.703Z,18.00
2023-03-13T15:36:01.531Z,18.00
2023-03-13T15:38:36.983Z,18.00
2023-03-13T15:41:09.893Z,18.00
2023-03-13T15:43:46.153Z,18.00
2023-03-13T15:46:35.937Z,17.90
2023-03-13T15:49:13.243Z,17.90
2023-03-13T15:51:59.673Z,17.90
2023-03-13T15:54:32.909Z,17.90
2023-03-13T15:57:13.263Z,17.90
2023-03-13T15:59:46.483Z,17.90
2023-03-13T16:02:26.715Z,17.90
2023-03-13T16:05:09.995Z,17.90
2023-03-13T16:07:42.897Z,17.80
2023-03-13T16:10:28.867Z,17.80
2023-03-13T16:13:07.466Z,17.80
2023-03-13T16:15:42.660Z,17.70
2023-03-13T16:18:26.247Z,17.80
2023-03-13T16:20:59.416Z,17.70
2023-03-13T16:23:32.411Z,17.80
2023-03-13T16:26:30.954Z,17.80
2023-03-13T16:29:09.597Z,17.80
2023-03-13T16:31:43.052Z,17.80
2023-03-13T16:34:18.797Z,17.70
2023-03-13T16:36:51.580Z,17.70
2023-03-13T16:39:24.324Z,17.80
2023-03-13T16:42:05.193Z,17.70
2023-03-13T16:44:40.725Z,17.70
2023-03-13T16:47:33.702Z,17.80
2023-03-13T16:50:38.891Z,17.70
2023-03-13T16:53:14.042Z,17.70
2023-03-13T16:55:53.722Z,17.70
2023-03-13T16:58:26.644Z,17.70
2023-03-13T17:01:05.686Z,17.70
2023-03-13T17:03:41.940Z,17.70
2023-03-13T17:06:17.749Z,17.70
2023-03-13T17:08:51.084Z,17.70
2023-03-13T17:11:25.310Z,17.70
2023-03-13T17:13:59.730Z,17.60
2023-03-13T17:16:35.529Z,17.60
2023-03-13T17:19:08.284Z,17.60
2023-03-13T17:21:41.142Z,17.60
2023-03-13T17:24:14.092Z,17.60
2023-03-13T17:26:46.754Z,17.50
2023-03-13T17:29:22.064Z,17.60
2023-03-13T17:31:54.905Z,17.60
2023-03-13T17:34:33.676Z,17.60
2023-03-13T17:37:22.731Z,17.60
2023-03-13T17:39:55.691Z,17.50
2023-03-13T17:42:28.523Z,17.50
2023-03-13T17:45:01.236Z,17.50
2023-03-13T17:47:37.216Z,17.50
2023-03-13T17:50:20.334Z,17.50
2023-03-13T17:52:53.355Z,17.50
2023-03-13T17:55:26.213Z,17.50
2023-03-13T17:57:59.000Z,17.50
2023-03-13T18:00:33.036Z,17.50
2023-03-13T18:03:05.851Z,17.50
2023-03-13T18:05:38.836Z,17.50
2023-03-13T18:08:12.302Z,17.50
2023-03-13T18:10:47.402Z,17.50
2023-03-13T18:13:45.462Z,17.40
2023-03-13T18:16:48.076Z,17.40
2023-03-13T18:19:24.327Z,17.40
2023-03-13T18:21:57.173Z,17.40
2023-03-13T18:24:29.840Z,17.40
2023-03-13T18:27:03.100Z,17.40
2023-03-13T18:29:35.633Z,17.40
2023-03-13T18:32:10.362Z,17.40
2023-03-13T18:34:43.862Z,17.40
2023-03-13T18:37:28.555Z,17.40
2023-03-13T18:40:01.497Z,17.40
2023-03-13T18:42:34.464Z,17.40
2023-03-13T18:45:34.238Z,17.40
2023-03-13T18:48:12.527Z,17.40
2023-03-13T18:51:09.682Z,17.40
2023-03-13T18:53:45.409Z,17.40
2023-03-13T18:57:01.471Z,17.40
2023-03-13T18:59:39.348Z,17.40
2023-03-13T19:02:19.271Z,17.40
2023-03-13T19:04:52.243Z,17.40
2023-03-13T19:07:26.960Z,17.40
2023-03-13T19:09:59.628Z,17.40
2023-03-13T19:12:32.364Z,17.40
2023-03-13T19:15:05.208Z,17.40
2023-03-13T19:17:37.740Z,17.40
2023-03-13T19:20:19.964Z,17.40
2023-03-13T19:22:54.445Z,17.40
2023-03-13T19:25:27.822Z,17.40
2023-03-13T19:28:14.587Z,17.40
2023-03-13T19:30:47.948Z,17.40
2023-03-13T19:33:20.826Z,17.40
2023-03-13T19:36:01.417Z,17.30
2023-03-13T19:38:34.177Z,17.30
2023-03-13T19:41:08.636Z,17.40
2023-03-13T19:43:41.953Z,17.30
2023-03-13T19:46:25.523Z,17.30
2023-03-13T19:49:00.856Z,17.40
2023-03-13T19:51:33.376Z,17.40
2023-03-13T19:54:06.383Z,17.30
2023-03-13T19:56:40.964Z,17.30
2023-03-13T19:59:24.587Z,17.30
2023-03-13T20:01:57.207Z,17.30
2023-03-13T20:04:29.847Z,17.30
2023-03-13T20:07:02.668Z,17.20
2023-03-13T20:09:36.548Z,17.20
2023-03-13T20:12:09.308Z,17.20
2023-03-13T20:14:41.870Z,17.20
2023-03-13T20:17:14.723Z,17.20
2023-03-13T20:19:47.717Z,17.20
2023-03-13T20:22:20.378Z,17.20
2023-03-13T20:24:55.206Z,17.20
2023-03-13T20:27:27.804Z,17.20
2023-03-13T20:30:01.046Z,17.20
2023-03-13T20:32:33.564Z,17.10
2023-03-13T20:35:10.859Z,17.10
2023-03-13T20:37:43.564Z,17.10
2023-03-13T20:40:16.260Z,17.10
2023-03-13T20:42:48.808Z,17.10
2023-03-13T20:45:21.351Z,17.00
2023-03-13T20:47:55.461Z,17.00
2023-03-13T20:50:28.776Z,17.00
2023-03-13T20:53:01.455Z,17.00
2023-03-13T20:55:34.168Z,17.00
2023-03-13T20:58:06.776Z,16.90
2023-03-13T21:00:39.268Z,16.90
2023-03-13T21:03:14.392Z,16.90
2023-03-13T21:05:46.962Z,16.90
2023-03-13T21:08:19.694Z,16.90
2023-03-13T21:10:52.943Z,16.90
2023-03-13T21:13:25.739Z,16.80
2023-03-13T21:16:02.731Z,16.80
2023-03-13T21:18:35.461Z,16.80
2023-03-13T21:21:19.441Z,16.80
2023-03-13T21:23:53.361Z,16.80
2023-03-13T21:26:30.225Z,16.80
2023-03-13T21:29:03.884Z,16.70
2023-03-13T21:31:38.163Z,16.70
2023-03-13T21:34:11.876Z,16.80
2023-03-13T21:36:44.580Z,16.70
2023-03-13T21:39:17.112Z,16.70
2023-03-13T21:41:49.669Z,16.70
2023-03-13T21:44:22.380Z,16.70
2023-03-13T21:46:58.195Z,16.60
2023-03-13T21:49:30.934Z,16.60
2023-03-13T21:52:04.058Z,16.60
2023-03-13T21:54:36.380Z,16.60
2023-03-13T21:57:08.986Z,16.60
2023-03-13T21:59:42.620Z,16.60
2023-03-13T22:02:15.202Z,16.60
2023-03-13T22:04:47.766Z,16.60
2023-03-13T22:07:20.951Z,16.60
2023-03-13T22:09:53.279Z,16.50
2023-03-13T22:12:26.016Z,16.50
2023-03-13T22:15:00.706Z,16.50
2023-03-13T22:17:33.316Z,16.50
2023-03-13T22:20:06.662Z,16.50
2023-03-13T22:22:39.274Z,16.50
2023-03-13T22:25:11.792Z,16.50
2023-03-13T22:27:44.562Z,16.50
2023-03-13T22:30:17.267Z,16.50
2023-03-13T22:32:50.037Z,16.50
2023-03-13T22:35:22.554Z,16.50
2023-03-13T22:37:55.088Z,16.50
2023-03-13T22:40:27.621Z,16.50
2023-03-13T22:43:00.387Z,16.40
2023-03-13T22:45:34.276Z,16.40
2023-03-13T22:48:08.257Z,16.40
2023-03-13T22:50:40.949Z,16.40
2023-03-13T22:53:13.996Z,16.40
2023-03-13T22:55:46.492Z,16.30
2023-03-13T22:58:19.143Z,16.40
2023-03-13T23:00:51.839Z,16.40
2023-03-13T23:03:24.691Z,16.40
2023-03-13T23:05:57.241Z,16.40
2023-03-13T23:08:30.241Z,16.40
2023-03-13T23:11:03.564Z,16.40
2023-03-13T23:13:36.178Z,16.40
2023-03-13T23:16:10.498Z,16.40
2023-03-13T23:18:43.220Z,16.40
2023-03-13T23:21:16.218Z,16.40
2023-03-13T23:23:49.130Z,16.40
2023-03-13T23:26:22.193Z,16.40
2023-03-13T23:28:54.820Z,16.40
2023-03-13T23:31:27.362Z,16.40
2023-03-13T23:34:00.152Z,16.40
2023-03-13T23:36:32.737Z,16.40
2023-03-13T23:39:05.263Z,16.40
2023-03-13T23:41:37.938Z,16.40
2023-03-13T23:44:10.574Z,16.40
2023-03-13T23:46:42.991Z,16.40
2023-03-13T23:49:15.923Z,16.40
2023-03-13T23:51:48.403Z,16.30
2023-03-13T23:54:21.774Z,16.30
2023-03-13T23:56:54.217Z,16.30
2023-03-13T23:59:27.108Z,16.30
